createdAt,value
2022-10-12T00:00:39.772Z,30.50
2022-10-12T00:03:49.002Z,31.70
2022-10-12T00:06:39.635Z,30.60
2022-10-12T00:12:14.102Z,30.70
2022-10-12T00:15:07.322Z,28.80
2022-10-12T00:17:46.612Z,31.40
2022-10-12T00:20:42.798Z,28.70
2022-10-12T00:23:10.987Z,30.10
2022-10-12T00:25:47.485Z,29.20
2022-10-12T00:29:04.914Z,31.90
2022-10-12T00:31:45.156Z,28.40
2022-10-12T00:34:23.331Z,31.30
2022-10-12T00:36:50.914Z,28.40
2022-10-12T00:39:28.372Z,29.70
2022-10-12T00:42:05.895Z,31.20
2022-10-12T00:45:18.045Z,30.30
2022-10-12T00:47:50.782Z,31.40
2022-10-12T00:50:38.290Z,34.30
2022-10-12T00:53:40.659Z,30.60
2022-10-12T00:56:27.976Z,29.50
2022-10-12T00:59:07.575Z,27.20
2022-10-12T01:01:44.811Z,29.90
2022-10-12T01:04:19.591Z,29.60
2022-10-12T01:06:57.684Z,29.90
2022-10-12T01:09:28.518Z,25.40
2022-10-12T01:12:11.905Z,33.90
2022-10-12T01:15:00.593Z,28.30
2022-10-12T01:17:40.711Z,30.00
2022-10-12T01:20:41.264Z,31.80
2022-10-12T01:23:40.918Z,31.00
2022-10-12T01:26:45.002Z,25.40
2022-10-12T01:29:39.133Z,26.60
2022-10-12T01:32:49.494Z,29.80
2022-10-12T01:35:57.085Z,30.60
2022-10-12T01:39:09.025Z,35.10
2022-10-12T01:42:24.187Z,31.90
2022-10-12T01:45:25.213Z,27.10
2022-10-12T01:48:15.048Z,29.40
2022-10-12T01:50:58.876Z,31.90
2022-10-12T01:53:59.977Z,32.60
2022-10-12T01:57:22.412Z,29.30
2022-10-12T02:00:51.268Z,30.10
2022-10-12T02:04:00.979Z,26.20
2022-10-12T02:06:57.078Z,29.40
2022-10-12T02:09:34.121Z,32.70
2022-10-12T02:12:42.385Z,31.00
2022-10-12T02:15:37.655Z,31.00
2022-10-12T02:18:13.457Z,28.40
2022-10-12T02:20:55.442Z,27.30
2022-10-12T02:23:58.805Z,27.80
2022-10-12T02:26:41.926Z,31.50
2022-10-12T02:29:31.865Z,32.80
2022-10-12T02:32:25.692Z,31.50
2022-10-12T02:34:59.668Z,29.00
2022-10-12T02:37:53.957Z,30.20
2022-10-12T02:40:37.945Z,30.20
2022-10-12T02:43:24.438Z,28.40
2022-10-12T02:45:55.048Z,30.20
2022-10-12T02:48:36.880Z,29.60
2022-10-12T02:51:11.401Z,32.40
2022-10-12T02:53:57.189Z,28.60
2022-10-12T02:56:29.121Z,31.20
2022-10-12T02:59:04.905Z,33.30
2022-10-12T03:01:41.971Z,33.80
2022-10-12T03:04:19.279Z,30.90
2022-10-12T03:07:09.718Z,31.50
2022-10-12T03:09:41.513Z,30.00
2022-10-12T03:12:19.324Z,30.60
2022-10-12T03:15:15.106Z,30.70
2022-10-12T03:18:06.170Z,28.20
2022-10-12T03:21:13.689Z,29.80
2022-10-12T03:24:07.067Z,33.00
2022-10-12T03:26:54.013Z,30.80
2022-10-12T03:29:30.211Z,30.60
2022-10-12T03:32:00.412Z,32.50
2022-10-12T03:34:48.367Z,32.50
2022-10-12T03:37:29.413Z,35.00
2022-10-12T03:40:28.313Z,31.50
2022-10-12T03:43:10.116Z,32.20
2022-10-12T03:46:16.591Z,31.90
2022-10-12T03:49:09.062Z,35.10
2022-10-12T03:52:02.894Z,32.90
2022-10-12T03:54:57.468Z,34.20
2022-10-12T03:57:35.009Z,34.90
2022-10-12T04:00:15.606Z,30.80
2022-10-12T04:03:00.783Z,36.00
2022-10-12T04:05:58.591Z,35.40
2022-10-12T04:08:51.129Z,28.90
2022-10-12T04:11:27.422Z,31.40
2022-10-12T04:14:08.804Z,27.90
2022-10-12T04:16:52.953Z,31.90
2022-10-12T04:19:28.575Z,32.00
2022-10-12T04:22:22.582Z,35.70
2022-10-12T04:25:13.337Z,30.60
2022-10-12T04:27:43.314Z,33.80
2022-10-12T04:30:15.047Z,36.70
2022-10-12T04:32:59.592Z,34.30
2022-10-12T04:35:33.018Z,30.20
2022-10-12T04:38:36.947Z,30.10
2022-10-12T04:41:19.990Z,31.40
2022-10-12T04:43:54.274Z,30.70
2022-10-12T04:46:37.073Z,38.30
2022-10-12T04:49:17.785Z,32.10
2022-10-12T04:51:59.447Z,33.90
2022-10-12T04:54:43.445Z,30.70
2022-10-12T04:57:43.729Z,34.20
2022-10-12T05:00:16.210Z,31.00
2022-10-12T05:02:58.704Z,31.80
2022-10-12T05:05:36.290Z,32.00
2022-10-12T05:08:14.639Z,28.80
2022-10-12T05:11:03.555Z,37.80
2022-10-12T05:13:59.204Z,34.90
2022-10-12T05:17:04.961Z,31.30
2022-10-12T05:19:40.961Z,32.40
2022-10-12T05:22:40.310Z,31.40
2022-10-12T05:25:31.447Z,29.70
2022-10-12T05:28:18.173Z,30.80
2022-10-12T05:31:12.198Z,37.40
2022-10-12T05:33:51.447Z,35.50
2022-10-12T05:36:30.309Z,28.20
2022-10-12T05:39:15.909Z,30.70
2022-10-12T05:42:13.507Z,37.40
2022-10-12T05:44:53.227Z,32.60
2022-10-12T05:47:44.702Z,33.00
2022-10-12T05:50:29.413Z,36.50
2022-10-12T05:53:17.039Z,33.20
2022-10-12T05:55:59.569Z,38.20
2022-10-12T06:01:13.728Z,40.40
2022-10-12T06:03:41.384Z,40.00
2022-10-12T06:06:28.838Z,34.30
2022-10-12T06:09:02.485Z,36.90
2022-10-12T06:11:41.679Z,33.10
2022-10-12T06:14:17.541Z,45.00
2022-10-12T06:16:53.831Z,36.10
2022-10-12T06:19:49.907Z,36.20
2022-10-12T06:22:31.435Z,27.60
2022-10-12T06:25:02.668Z,32.80
2022-10-12T06:27:40.164Z,30.20
2022-10-12T06:30:44.932Z,36.70
2022-10-12T06:33:31.044Z,27.60
2022-10-12T06:36:07.360Z,38.20
2022-10-12T06:38:49.081Z,30.10
2022-10-12T06:41:31.513Z,32.50
2022-10-12T06:44:23.677Z,30.40
2022-10-12T06:47:09.435Z,37.00
2022-10-12T06:49:48.968Z,27.90
2022-10-12T06:52:23.294Z,30.10
2022-10-12T06:55:07.308Z,29.40
2022-10-12T06:58:08.167Z,30.00
2022-10-12T07:00:47.531Z,31.30
2022-10-12T07:04:07.337Z,30.70
2022-10-12T07:06:52.723Z,33.00
2022-10-12T07:09:52.459Z,30.00
2022-10-12T07:12:34.517Z,30.10
2022-10-12T07:15:16.414Z,27.00
2022-10-12T07:18:08.141Z,25.80
2022-10-12T07:20:51.878Z,32.10
2022-10-12T07:23:30.098Z,25.60
2022-10-12T07:26:17.949Z,29.80
2022-10-12T07:29:04.832Z,29.40
2022-10-12T07:31:52.752Z,29.30
2022-10-12T07:34:43.787Z,27.80
2022-10-12T07:37:25.451Z,28.70
2022-10-12T07:40:09.105Z,33.20
2022-10-12T07:43:05.472Z,23.80
2022-10-12T07:45:42.814Z,25.50
2022-10-12T07:48:57.738Z,27.50
2022-10-12T07:52:02.028Z,24.30
2022-10-12T07:54:31.810Z,25.40
2022-10-12T07:57:27.983Z,27.30
2022-10-12T08:00:32.102Z,27.20
2022-10-12T08:03:17.501Z,25.20
2022-10-12T08:05:50.942Z,23.10
2022-10-12T08:08:18.993Z,25.30
2022-10-12T08:11:12.939Z,25.60
2022-10-12T08:14:05.211Z,26.90
2022-10-12T08:17:01.557Z,26.40
2022-10-12T08:19:40.312Z,22.60
2022-10-12T08:22:43.346Z,19.80
2022-10-12T08:26:05.060Z,22.30
2022-10-12T08:29:08.052Z,19.80
2022-10-12T08:31:55.418Z,18.60
2022-10-12T08:34:49.859Z,18.70
2022-10-12T08:37:36.978Z,17.70
2022-10-12T08:40:12.586Z,24.70
2022-10-12T08:43:15.695Z,19.90
2022-10-12T08:46:15.020Z,22.20
2022-10-12T08:49:36.427Z,28.40
2022-10-12T08:52:18.200Z,18.20
2022-10-12T08:55:08.456Z,17.90
2022-10-12T08:58:03.076Z,14.50
2022-10-12T09:00:43.309Z,19.60
2022-10-12T09:03:37.467Z,18.00
2022-10-12T09:06:22.127Z,16.90
2022-10-12T09:09:05.634Z,17.20
2022-10-12T09:12:14.486Z,14.60
2022-10-12T09:15:09.965Z,17.00
2022-10-12T09:18:12.518Z,16.80
2022-10-12T09:21:08.308Z,16.30
2022-10-12T09:23:48.177Z,14.40
2022-10-12T09:26:50.148Z,18.30
2022-10-12T09:29:26.813Z,13.20
2022-10-12T09:32:46.050Z,14.40
2022-10-12T09:36:01.343Z,15.40
2022-10-12T09:41:41.551Z,13.10
2022-10-12T09:44:56.785Z,12.50
2022-10-12T09:48:16.575Z,9.40
2022-10-12T09:51:13.648Z,9.80
2022-10-12T09:53:57.508Z,10.30
2022-10-12T09:56:53.230Z,13.20
2022-10-12T09:59:32.326Z,9.10
2022-10-12T10:02:19.544Z,13.80
2022-10-12T10:05:23.760Z,10.20
2022-10-12T10:08:12.795Z,11.80
2022-10-12T10:11:45.575Z,9.30
2022-10-12T10:14:29.014Z,10.40
2022-10-12T10:17:05.672Z,8.30
2022-10-12T10:20:06.774Z,9.20
2022-10-12T10:22:59.219Z,13.50
2022-10-12T10:25:45.931Z,7.90
2022-10-12T10:31:29.485Z,9.50
2022-10-12T10:34:31.206Z,9.90
2022-10-12T10:37:30.256Z,6.70
2022-10-12T10:40:35.061Z,8.30
2022-10-12T10:43:21.607Z,5.30
2022-10-12T10:46:01.264Z,6.90
2022-10-12T10:48:56.348Z,5.90
2022-10-12T10:51:53.634Z,7.00
2022-10-12T10:54:56.819Z,8.40
2022-10-12T10:57:39.607Z,7.60
2022-10-12T11:00:39.745Z,7.80
2022-10-12T11:03:31.317Z,5.90
2022-10-12T11:06:25.979Z,7.60
2022-10-12T11:09:11.710Z,10.20
2022-10-12T11:12:12.494Z,9.40
2022-10-12T11:14:56.871Z,8.40
2022-10-12T11:17:55.439Z,5.90
2022-10-12T11:20:35.960Z,8.30
2022-10-12T11:23:40.281Z,8.40
2022-10-12T11:26:36.887Z,7.40
2022-10-12T11:29:14.263Z,8.10
2022-10-12T11:32:08.788Z,5.40
2022-10-12T11:34:57.371Z,4.80
2022-10-12T11:38:00.914Z,8.10
2022-10-12T11:41:05.732Z,6.70
2022-10-12T11:44:01.959Z,6.40
2022-10-12T11:47:17.711Z,7.00
2022-10-12T11:50:35.242Z,4.30
2022-10-12T12:33:47.928Z,6.80
2022-10-12T12:36:34.589Z,4.30
2022-10-12T12:39:06.226Z,7.90
2022-10-12T12:42:05.264Z,8.00
2022-10-12T12:44:36.357Z,6.20
2022-10-12T12:47:20.574Z,5.60
2022-10-12T12:49:56.932Z,13.40
2022-10-12T12:52:25.250Z,7.50
2022-10-12T12:55:31.198Z,5.10
2022-10-12T12:58:37.186Z,7.30
2022-10-12T13:01:23.928Z,9.00
2022-10-12T13:03:55.983Z,5.70
2022-10-12T13:06:49.682Z,5.00
2022-10-12T13:09:37.190Z,7.00
2022-10-12T13:12:28.180Z,5.70
2022-10-12T13:15:24.380Z,7.50
2022-10-12T13:18:01.931Z,8.20
2022-10-12T13:20:37.957Z,7.00
2022-10-12T13:23:16.888Z,7.20
2022-10-12T13:25:57.101Z,5.00
2022-10-12T13:28:33.180Z,7.80
2022-10-12T13:31:09.930Z,5.40
2022-10-12T13:33:58.399Z,5.20
2022-10-12T13:36:31.935Z,3.40
2022-10-12T13:39:09.019Z,5.70
2022-10-12T13:41:38.105Z,7.00
2022-10-12T13:44:08.041Z,8.10
2022-10-12T13:47:05.433Z,4.20
2022-10-12T13:49:43.715Z,3.50
2022-10-12T13:52:12.545Z,11.40
2022-10-12T13:54:47.858Z,4.60
2022-10-12T13:57:42.382Z,4.00
2022-10-12T14:00:14.285Z,8.70
2022-10-12T14:03:08.552Z,6.20
2022-10-12T14:05:44.933Z,7.80
2022-10-12T14:08:17.677Z,5.50
2022-10-12T14:10:46.810Z,5.60
2022-10-12T14:13:26.694Z,5.70
2022-10-12T14:15:56.658Z,4.90
2022-10-12T14:18:32.293Z,6.80
2022-10-12T14:21:15.170Z,4.20
2022-10-12T14:23:48.502Z,5.80
2022-10-12T14:26:40.827Z,4.80
2022-10-12T14:29:32.123Z,6.60
2022-10-12T14:34:47.948Z,7.40
2022-10-12T14:37:16.925Z,7.50
2022-10-12T14:39:50.875Z,7.30
2022-10-12T14:42:34.590Z,8.50
2022-10-12T14:45:06.514Z,8.10
2022-10-12T14:47:39.517Z,5.60
2022-10-12T14:50:09.974Z,7.10
2022-10-12T14:52:44.073Z,7.90
2022-10-12T14:55:21.697Z,7.50
2022-10-12T14:57:51.195Z,6.40
2022-10-12T15:00:30.360Z,4.80
2022-10-12T15:02:59.442Z,7.90
2022-10-12T15:05:31.979Z,6.10
2022-10-12T15:08:01.572Z,4.30
2022-10-12T15:10:30.416Z,6.80
2022-10-12T15:12:58.859Z,8.90
2022-10-12T15:15:46.992Z,6.40
2022-10-12T15:18:16.127Z,4.60
2022-10-12T15:20:49.620Z,4.70
2022-10-12T15:23:18.974Z,8.50
2022-10-12T15:26:04.410Z,9.00
2022-10-12T15:28:34.361Z,5.40
2022-10-12T15:31:16.881Z,6.50
2022-10-12T15:33:47.149Z,6.00
2022-10-12T15:36:16.611Z,6.80
2022-10-12T15:38:53.496Z,6.50
2022-10-12T15:41:27.822Z,6.20
2022-10-12T15:43:59.389Z,6.10
2022-10-12T15:46:28.472Z,8.90
2022-10-12T15:48:58.142Z,12.10
2022-10-12T15:51:27.556Z,15.20
2022-10-12T15:53:57.123Z,10.70
2022-10-12T15:56:26.391Z,13.40
2022-10-12T15:58:55.710Z,11.50
2022-10-12T16:01:26.954Z,12.50
2022-10-12T16:03:57.557Z,12.90
2022-10-12T16:08:58.126Z,11.60
2022-10-12T16:11:27.257Z,6.00
2022-10-12T16:13:57.025Z,11.70
2022-10-12T16:16:26.573Z,9.00
2022-10-12T16:18:55.215Z,10.10
2022-10-12T16:21:25.049Z,10.00
2022-10-12T16:23:54.662Z,8.40
2022-10-12T16:26:22.971Z,8.90
2022-10-12T16:28:51.401Z,9.70
2022-10-12T16:31:19.845Z,7.70
2022-10-12T16:33:48.301Z,9.40
2022-10-12T16:36:17.609Z,9.10
2022-10-12T16:38:46.151Z,8.30
2022-10-12T16:41:17.403Z,9.60
2022-10-12T16:43:46.182Z,9.10
2022-10-12T16:46:14.413Z,8.60
2022-10-12T16:48:44.257Z,7.80
2022-10-12T16:51:14.078Z,6.70
2022-10-12T16:53:42.689Z,8.40
2022-10-12T16:56:11.305Z,9.80
2022-10-12T16:58:39.863Z,10.70
2022-10-12T17:01:13.003Z,11.60
2022-10-12T17:03:41.576Z,8.10
2022-10-12T17:06:10.983Z,10.00
2022-10-12T17:08:39.705Z,10.90
2022-10-12T17:11:11.742Z,12.40
2022-10-12T17:13:45.235Z,11.90
2022-10-12T17:16:36.012Z,10.20
2022-10-12T17:19:04.829Z,12.40
2022-10-12T17:21:33.695Z,8.30
2022-10-12T17:24:02.996Z,12.00
2022-10-12T17:26:31.384Z,13.80
2022-10-12T17:29:00.587Z,15.30
2022-10-12T17:31:30.113Z,10.80
2022-10-12T17:33:59.163Z,14.60
2022-10-12T17:36:28.591Z,14.40
2022-10-12T17:38:58.996Z,14.90
2022-10-12T17:41:29.231Z,25.80
2022-10-12T17:43:58.744Z,20.30
2022-10-12T17:46:29.790Z,35.80
2022-10-12T17:49:02.857Z,38.80
2022-10-12T17:51:31.763Z,40.30
2022-10-12T17:54:00.317Z,30.10
2022-10-12T17:56:29.015Z,22.20
2022-10-12T17:58:59.043Z,17.10
2022-10-12T18:01:29.897Z,20.00
2022-10-12T18:04:10.677Z,22.30
2022-10-12T18:06:40.709Z,18.80
2022-10-12T18:09:09.963Z,24.00
2022-10-12T18:11:42.391Z,38.90
2022-10-12T18:14:15.682Z,60.60
2022-10-12T18:16:44.623Z,50.40
2022-10-12T18:19:15.682Z,38.50
2022-10-12T18:21:47.559Z,25.40
2022-10-12T18:24:19.110Z,28.30
2022-10-12T18:26:52.264Z,18.90
2022-10-12T18:29:28.041Z,21.00
2022-10-12T18:31:58.408Z,16.70
2022-10-12T18:34:34.256Z,18.50
2022-10-12T18:37:05.931Z,20.30
2022-10-12T18:39:34.872Z,23.20
2022-10-12T18:42:03.738Z,21.50
2022-10-12T18:44:34.102Z,24.60
2022-10-12T18:47:10.798Z,26.40
2022-10-12T18:49:39.833Z,23.90
2022-10-12T18:52:09.262Z,22.00
2022-10-12T18:54:39.157Z,22.00
2022-10-12T18:57:08.609Z,26.40
2022-10-12T18:59:39.038Z,18.50
2022-10-12T19:02:10.884Z,25.50
2022-10-12T19:04:39.883Z,24.30
2022-10-12T19:07:08.564Z,20.60
2022-10-12T19:09:37.759Z,28.20
2022-10-12T19:16:33.452Z,21.70
2022-10-12T19:19:14.884Z,26.50
2022-10-12T19:21:49.519Z,22.50
2022-10-12T19:24:19.778Z,26.90
2022-10-12T19:26:52.489Z,23.40
2022-10-12T19:29:23.496Z,25.20
2022-10-12T19:34:25.496Z,19.20
2022-10-12T19:39:27.479Z,23.30
2022-10-12T19:41:58.758Z,21.20
2022-10-12T19:44:30.521Z,22.20
2022-10-12T19:47:01.496Z,22.70
2022-10-12T19:49:36.454Z,21.00
2022-10-12T19:52:07.310Z,21.50
2022-10-12T19:54:38.486Z,24.00
2022-10-12T19:57:09.174Z,24.80
2022-10-12T19:59:40.807Z,23.60
2022-10-12T20:04:42.544Z,22.70
2022-10-12T20:07:13.465Z,18.20
2022-10-12T20:09:44.552Z,18.30
2022-10-12T20:12:16.877Z,20.50
2022-10-12T20:22:56.494Z,19.70
2022-10-12T20:25:32.214Z,21.00
2022-10-12T20:28:25.738Z,23.40
2022-10-12T20:31:27.886Z,18.10
2022-10-12T20:34:00.416Z,19.30
2022-10-12T20:36:57.137Z,16.20
2022-10-12T20:39:46.037Z,18.30
2022-10-12T20:42:26.826Z,22.80
2022-10-12T20:48:10.322Z,20.30
2022-10-12T20:51:01.068Z,18.70
2022-10-12T20:53:47.585Z,15.90
2022-10-12T20:56:51.655Z,21.40
2022-10-12T20:59:39.639Z,18.20
2022-10-12T21:02:13.221Z,24.20
2022-10-12T21:04:57.650Z,20.00
2022-10-12T21:07:50.370Z,16.00
2022-10-12T21:10:42.326Z,19.40
2022-10-12T21:13:15.148Z,15.70
2022-10-12T21:15:53.567Z,19.80
2022-10-12T21:18:31.698Z,16.30
2022-10-12T21:21:51.987Z,19.10
2022-10-12T21:24:34.527Z,15.90
2022-10-12T21:27:29.844Z,21.00
2022-10-12T21:30:26.362Z,18.20
2022-10-12T21:33:36.084Z,16.60
2022-10-12T21:36:45.415Z,17.30
2022-10-12T21:39:39.494Z,15.30
2022-10-12T21:42:20.738Z,16.60
2022-10-12T21:45:33.855Z,16.50
2022-10-12T21:48:10.896Z,19.90
2022-10-12T21:50:50.130Z,20.60
2022-10-12T21:53:50.306Z,18.10
2022-10-12T21:56:39.661Z,18.60
2022-10-12T21:59:47.347Z,16.70
2022-10-12T22:02:44.383Z,14.70
2022-10-12T22:05:15.707Z,15.80
2022-10-12T22:07:53.440Z,14.40
2022-10-12T22:10:50.983Z,15.40
2022-10-12T22:13:31.633Z,22.90
2022-10-12T22:16:07.076Z,17.20
2022-10-12T22:19:01.812Z,14.40
2022-10-12T22:21:53.698Z,17.60
2022-10-12T22:24:53.716Z,23.60
2022-10-12T22:27:27.015Z,18.10
2022-10-12T22:30:22.254Z,15.10
2022-10-12T22:33:13.685Z,17.00
2022-10-12T22:36:18.270Z,20.30
2022-10-12T22:39:02.006Z,18.50
2022-10-12T22:41:39.504Z,17.00
2022-10-12T22:44:29.390Z,17.30
2022-10-12T22:47:08.863Z,19.00
2022-10-12T22:49:47.857Z,19.20
2022-10-12T22:52:27.922Z,20.10
2022-10-12T22:55:03.564Z,21.20
2022-10-12T22:57:33.133Z,19.40
2022-10-12T23:00:18.230Z,17.90
2022-10-12T23:02:48.313Z,18.80
2022-10-12T23:05:29.228Z,19.70
2022-10-12T23:08:12.879Z,20.70
2022-10-12T23:10:50.111Z,20.60
2022-10-12T23:13:19.233Z,19.90
2022-10-12T23:15:47.405Z,18.90
2022-10-12T23:18:43.430Z,20.80
2022-10-12T23:21:25.786Z,21.90
2022-10-12T23:24:52.898Z,21.40
2022-10-12T23:28:02.468Z,21.70
2022-10-12T23:30:37.366Z,23.80
2022-10-12T23:33:15.713Z,17.60
2022-10-12T23:35:47.815Z,22.20
2022-10-12T23:38:25.154Z,24.40
2022-10-12T23:41:10.152Z,20.50
2022-10-12T23:44:05.642Z,21.00
2022-10-12T23:46:35.030Z,24.00
2022-10-12T23:49:23.164Z,25.60
2022-10-12T23:52:02.582Z,22.90
2022-10-12T23:54:38.034Z,28.50
2022-10-12T23:57:41.454Z,25.00
